Hlavní strana
METAR-TAF:

METAR-TAF

Letiště :

Daşoguz, Turkmenistán

zeměpisná šířka: 41-45-53N, zeměpisná délka: 059-49-59E, výška: 83 m

Aktuální stav počasí

Zpráva byla vytvořena před 1 hodinou a 11 minutami, v 02:00 UTC
Bezvětří
Teplota -6°C
Vlhkost vzduchu 73%
Tlak 1033 hPa
Viditelnost 10 km a více
Žádná oblačnost pod 1500 m, nevyskytují se cumulonimby.

METAR: UTAT 180200Z 00000KT CAVOK M06/M10 Q1033 R08/CLRD70 NOSIG

Čas: 08:11 (03:11 UTC)

Předpověď počasí

Zpráva byla vytvořena před 4 hodinami a 28 minutami, v 22:43 UTC
Předpověď platná od 18 v 00 UTC do 18 v 24 UTC
Severoseverovýchodní vítr 12 kt
Viditelnost: 6000 m
Polojasno ve výšce 5000 ft
Oblačno až skoro zataženo ve výšce 10000 ft
Dočasný
od 18 v 00 UTC do 18 v 06 UTC
vítr z různých směrů 4 kt
Viditelnost: 2000 m
Oblačno až skoro zataženo ve výšce 700 ft
kouřmo

TAF: UTAT 172243Z 1800/1824 03012KT 6000 SCT050 BKN100 TEMPO 1800/1806 VRB04KT 2000 BR BKN007

Stav a předpovědi počasí z více než 4 000 letišť (zprávy METAR a TAF).

Červené a žluté tečky na mapě představují dostupné meteorologické stanice.

Když kurzor umístíte na tečku, zobrazí se název stanice.

Pak kliknutím zobrazíte stav a předpověď počasí.

Chcete-li změnit mapu, kliknutím na zelené tlačítko se znaménkem +mapu přiblížíte, kliknutím na zelené tlačítko se znaménkem – mapu oddálíte a kliknutím na zelené šipky přejdete na sousední mapy.


METAR-TAF: